createdAt,value
2023-03-02T00:00:03.114Z,11.44
2023-03-02T00:01:05.801Z,10.42
2023-03-02T00:02:08.375Z,9.43
2023-03-02T00:03:11.177Z,9.56
2023-03-02T00:04:13.729Z,11.41
2023-03-02T00:05:16.190Z,10.27
2023-03-02T00:06:18.756Z,9.71
2023-03-02T00:07:21.339Z,10.03
2023-03-02T00:08:23.907Z,10.14
2023-03-02T00:09:26.492Z,10.22
2023-03-02T00:10:29.145Z,10.09
2023-03-02T00:11:31.702Z,10.22
2023-03-02T00:12:34.294Z,8.95
2023-03-02T00:13:36.900Z,10.09
2023-03-02T00:14:39.465Z,8.83
2023-03-02T00:15:42.186Z,9.54
2023-03-02T00:16:45.201Z,9.21
2023-03-02T00:17:47.760Z,8.83
2023-03-02T00:18:50.315Z,9.12
2023-03-02T00:19:52.952Z,9.20
2023-03-02T00:20:55.608Z,8.44
2023-03-02T00:21:58.160Z,8.75
2023-03-02T00:23:00.792Z,8.03
2023-03-02T00:24:03.392Z,8.09
2023-03-02T00:25:06.008Z,8.23
2023-03-02T00:26:08.957Z,8.26
2023-03-02T00:27:11.543Z,8.00
2023-03-02T00:28:14.123Z,6.42
2023-03-02T00:29:16.700Z,6.81
2023-03-02T00:30:19.541Z,7.69
2023-03-02T00:31:22.171Z,8.90
2023-03-02T00:32:24.972Z,5.01
2023-03-02T00:33:27.514Z,8.07
2023-03-02T00:34:30.277Z,7.39
2023-03-02T00:35:32.987Z,6.97
2023-03-02T00:36:35.918Z,7.06
2023-03-02T00:37:38.796Z,8.08
2023-03-02T00:38:41.369Z,7.56
2023-03-02T00:39:43.949Z,8.61
2023-03-02T00:40:46.608Z,5.07
2023-03-02T00:41:49.511Z,7.35
2023-03-02T00:42:52.050Z,6.12
2023-03-02T00:43:54.653Z,7.75
2023-03-02T00:44:57.187Z,6.47
2023-03-02T00:45:59.787Z,6.15
2023-03-02T00:47:02.715Z,8.03
2023-03-02T00:48:05.624Z,7.76
2023-03-02T00:49:08.186Z,7.29
2023-03-02T00:50:11.851Z,6.91
2023-03-02T00:51:14.312Z,6.58
2023-03-02T00:52:16.873Z,6.22
2023-03-02T00:53:19.461Z,6.53
2023-03-02T00:54:22.006Z,6.41
2023-03-02T00:55:24.574Z,6.19
2023-03-02T00:56:27.242Z,6.37
2023-03-02T00:57:29.706Z,5.85
2023-03-02T00:58:32.183Z,5.50
2023-03-02T00:59:34.734Z,4.75
2023-03-02T01:00:37.603Z,7.11
2023-03-02T01:01:40.201Z,5.25
2023-03-02T01:02:42.960Z,4.95
2023-03-02T01:03:45.745Z,6.33
2023-03-02T01:04:48.301Z,5.99
2023-03-02T01:05:50.857Z,5.20
2023-03-02T01:06:53.685Z,6.48
2023-03-02T01:07:56.240Z,5.39
2023-03-02T01:08:58.878Z,4.95
2023-03-02T01:10:01.543Z,4.46
2023-03-02T01:11:04.404Z,6.06
2023-03-02T01:12:07.329Z,5.11
2023-03-02T01:13:09.998Z,5.91
2023-03-02T01:14:12.547Z,4.65
2023-03-02T01:15:15.101Z,5.17
2023-03-02T01:16:18.134Z,4.97
2023-03-02T01:17:20.938Z,5.01
2023-03-02T01:18:23.510Z,5.32
2023-03-02T01:19:26.311Z,7.08
2023-03-02T01:20:28.931Z,6.47
2023-03-02T01:21:31.554Z,5.31
2023-03-02T01:22:34.142Z,5.35
2023-03-02T01:23:36.704Z,5.21
2023-03-02T01:24:39.232Z,5.01
2023-03-02T01:25:41.789Z,5.98
2023-03-02T01:26:44.665Z,5.52
2023-03-02T01:27:47.235Z,6.05
2023-03-02T01:28:50.739Z,5.65
2023-03-02T01:29:53.579Z,6.13
2023-03-02T01:30:56.235Z,4.99
2023-03-02T01:31:58.937Z,5.43
2023-03-02T01:33:01.570Z,4.12
2023-03-02T01:34:04.155Z,4.97
2023-03-02T01:35:06.731Z,5.34
2023-03-02T01:36:10.496Z,5.19
2023-03-02T01:37:12.884Z,4.07
2023-03-02T01:38:15.552Z,6.72
2023-03-02T01:39:18.254Z,4.90
2023-03-02T01:40:21.217Z,4.61
2023-03-02T01:41:23.884Z,3.69
2023-03-02T01:42:26.444Z,5.19
2023-03-02T01:43:29.040Z,5.13
2023-03-02T01:44:31.579Z,4.45
2023-03-02T01:45:34.146Z,4.01
2023-03-02T01:46:37.007Z,4.55
2023-03-02T01:47:39.786Z,4.94
2023-03-02T01:48:42.258Z,5.09
2023-03-02T01:49:44.850Z,4.65
2023-03-02T01:50:47.612Z,4.52
2023-03-02T01:51:50.169Z,5.92
2023-03-02T01:52:54.283Z,4.74
2023-03-02T01:53:56.892Z,4.91
2023-03-02T01:54:59.463Z,4.31
2023-03-02T01:56:02.440Z,5.31
2023-03-02T01:57:05.004Z,4.69
2023-03-02T01:58:07.615Z,4.33
2023-03-02T01:59:10.172Z,2.14
2023-03-02T02:00:13.142Z,4.83
2023-03-02T02:01:15.873Z,3.57
2023-03-02T02:02:18.469Z,4.02
2023-03-02T02:03:21.162Z,4.24
2023-03-02T02:04:24.062Z,3.85
2023-03-02T02:05:26.571Z,4.68
2023-03-02T02:06:29.271Z,3.49
2023-03-02T02:07:31.781Z,3.76
2023-03-02T02:08:34.380Z,5.23
2023-03-02T02:09:36.843Z,4.77
2023-03-02T02:10:39.497Z,3.61
2023-03-02T02:11:42.091Z,3.89
2023-03-02T02:12:44.651Z,2.77
2023-03-02T02:13:47.212Z,4.05
2023-03-02T02:14:49.786Z,3.40
2023-03-02T02:15:52.368Z,2.32
2023-03-02T02:16:55.304Z,3.67
2023-03-02T02:17:57.893Z,3.03
2023-03-02T02:19:00.587Z,3.29
2023-03-02T02:20:03.288Z,3.46
2023-03-02T02:21:06.231Z,3.76
2023-03-02T02:22:08.804Z,3.60
2023-03-02T02:23:11.360Z,2.04
2023-03-02T02:24:13.929Z,3.13
2023-03-02T02:25:16.529Z,4.05
2023-03-02T02:26:19.310Z,1.87
2023-03-02T02:27:21.879Z,3.17
2023-03-02T02:28:24.488Z,3.25
2023-03-02T02:29:27.059Z,4.50
2023-03-02T02:30:29.652Z,3.34
2023-03-02T02:31:32.254Z,3.48
2023-03-02T02:32:34.896Z,4.23
2023-03-02T02:33:37.675Z,3.17
2023-03-02T02:34:40.215Z,3.05
2023-03-02T02:35:42.928Z,2.18
2023-03-02T02:36:45.979Z,2.31
2023-03-02T02:37:48.543Z,3.46
2023-03-02T02:38:51.154Z,3.09
2023-03-02T02:39:53.729Z,3.37
2023-03-02T02:40:56.615Z,2.74
2023-03-02T02:41:59.152Z,2.75
2023-03-02T02:43:01.717Z,3.38
2023-03-02T02:44:04.282Z,3.47
2023-03-02T02:45:06.876Z,3.23
2023-03-02T02:46:09.619Z,3.89
2023-03-02T02:47:12.172Z,2.65
2023-03-02T02:48:14.731Z,3.17
2023-03-02T02:49:17.291Z,3.15
2023-03-02T02:50:20.022Z,2.99
2023-03-02T02:51:22.910Z,3.21
2023-03-02T02:52:25.444Z,2.97
2023-03-02T02:53:27.889Z,3.41
2023-03-02T02:54:30.448Z,2.92
2023-03-02T02:55:33.129Z,3.24
2023-03-02T02:56:35.796Z,2.98
2023-03-02T02:57:38.331Z,2.57
2023-03-02T02:58:40.901Z,3.31
2023-03-02T02:59:43.460Z,2.33
2023-03-02T03:00:46.422Z,2.89
2023-03-02T03:01:48.938Z,3.61
2023-03-02T03:02:51.543Z,2.85
2023-03-02T03:03:54.076Z,2.34
2023-03-02T03:04:56.614Z,2.60
2023-03-02T03:05:59.182Z,2.45
2023-03-02T03:07:01.846Z,3.11
2023-03-02T03:08:04.408Z,2.39
2023-03-02T03:09:06.984Z,2.46
2023-03-02T03:10:10.170Z,2.87
2023-03-02T03:11:12.750Z,2.81
2023-03-02T03:12:15.317Z,2.13
2023-03-02T03:13:17.870Z,3.08
2023-03-02T03:14:20.430Z,2.63
2023-03-02T03:15:22.994Z,2.51
2023-03-02T03:16:26.195Z,3.20
2023-03-02T03:17:28.795Z,3.09
2023-03-02T03:18:31.349Z,3.63
2023-03-02T03:19:33.907Z,3.43
2023-03-02T03:20:36.461Z,2.89
2023-03-02T03:21:39.022Z,3.39
2023-03-02T03:22:41.628Z,3.03
2023-03-02T03:23:44.257Z,3.67
2023-03-02T03:24:46.794Z,3.85
2023-03-02T03:25:49.357Z,1.68
2023-03-02T03:26:52.228Z,4.64
2023-03-02T03:27:55.085Z,3.51
2023-03-02T03:28:57.708Z,3.87
2023-03-02T03:30:00.297Z,4.45
2023-03-02T03:31:02.966Z,4.29
2023-03-02T03:32:05.536Z,4.41
2023-03-02T03:33:08.235Z,3.44
2023-03-02T03:34:10.820Z,4.21
2023-03-02T03:35:13.365Z,2.56
2023-03-02T03:36:16.445Z,4.16
2023-03-02T03:37:19.005Z,4.09
2023-03-02T03:38:21.559Z,3.45
2023-03-02T03:39:24.137Z,3.69
2023-03-02T03:40:26.904Z,3.53
2023-03-02T03:41:29.462Z,4.01
2023-03-02T03:42:32.033Z,3.57
2023-03-02T03:43:34.609Z,2.71
2023-03-02T03:44:37.173Z,2.42
2023-03-02T03:45:39.726Z,2.80
2023-03-02T03:46:42.679Z,3.15
2023-03-02T03:47:45.240Z,2.17
2023-03-02T03:48:47.808Z,1.86
2023-03-02T03:49:50.372Z,2.25
2023-03-02T03:50:53.241Z,3.00
2023-03-02T03:51:55.796Z,2.30
2023-03-02T03:52:58.364Z,3.34
2023-03-02T03:54:00.960Z,2.97
2023-03-02T03:55:03.569Z,2.07
2023-03-02T03:56:06.637Z,2.87
2023-03-02T03:57:09.239Z,2.34
2023-03-02T03:58:11.909Z,2.65
2023-03-02T03:59:14.430Z,3.42
2023-03-02T04:00:17.339Z,3.05
2023-03-02T04:01:19.964Z,2.39
2023-03-02T04:02:22.698Z,2.56
2023-03-02T04:03:25.326Z,2.76
2023-03-02T04:04:27.731Z,2.21
2023-03-02T04:05:31.684Z,2.59
2023-03-02T04:06:35.200Z,2.38
2023-03-02T04:07:38.173Z,3.36
2023-03-02T04:08:40.740Z,3.33
2023-03-02T04:09:43.302Z,4.86
2023-03-02T04:10:46.257Z,3.96
2023-03-02T04:11:48.828Z,3.44
2023-03-02T04:12:51.380Z,3.07
2023-03-02T04:13:53.950Z,4.15
2023-03-02T04:14:56.532Z,6.89
2023-03-02T04:15:59.128Z,5.45
2023-03-02T04:17:01.976Z,3.36
2023-03-02T04:18:04.549Z,9.86
2023-03-02T04:19:07.129Z,3.99
2023-03-02T04:20:10.162Z,4.76
2023-03-02T04:21:12.957Z,7.71
2023-03-02T04:22:15.559Z,6.85
2023-03-02T04:23:18.123Z,4.13
2023-03-02T04:24:20.677Z,6.27
2023-03-02T04:25:23.104Z,7.71
2023-03-02T04:26:25.873Z,5.70
2023-03-02T04:27:28.464Z,4.35
2023-03-02T04:28:31.045Z,4.22
2023-03-02T04:29:33.609Z,4.32
2023-03-02T04:30:36.280Z,5.81
2023-03-02T04:31:38.863Z,10.15
2023-03-02T04:32:41.682Z,3.79
2023-03-02T04:33:44.289Z,4.56
2023-03-02T04:34:46.875Z,4.33
2023-03-02T04:35:49.500Z,6.87
2023-03-02T04:36:52.289Z,4.03
2023-03-02T04:37:54.894Z,4.46
2023-03-02T04:38:57.497Z,4.27
2023-03-02T04:40:00.082Z,5.18
2023-03-02T04:41:02.620Z,5.98
2023-03-02T04:42:05.176Z,3.93
2023-03-02T04:43:07.702Z,2.89
2023-03-02T04:44:10.270Z,3.82
2023-03-02T04:45:12.837Z,9.23
2023-03-02T04:46:16.060Z,3.24
2023-03-02T04:47:18.570Z,6.00
2023-03-02T04:48:21.153Z,3.65
2023-03-02T04:49:23.855Z,4.22
2023-03-02T04:50:26.665Z,6.83
2023-03-02T04:51:29.238Z,4.45
2023-03-02T04:52:31.814Z,3.86
2023-03-02T04:53:34.360Z,5.04
2023-03-02T04:54:36.932Z,3.33
2023-03-02T04:55:39.505Z,2.37
2023-03-02T04:56:42.366Z,2.51
2023-03-02T04:57:44.929Z,3.20
2023-03-02T04:58:47.523Z,4.35
2023-03-02T04:59:50.072Z,5.17
2023-03-02T05:00:52.731Z,4.95
2023-03-02T05:01:55.405Z,3.42
2023-03-02T05:02:58.089Z,3.71
2023-03-02T05:04:02.820Z,4.15
2023-03-02T05:05:04.964Z,5.26
2023-03-02T05:06:07.955Z,6.23
2023-03-02T05:07:10.606Z,4.96
2023-03-02T05:08:13.170Z,4.17
2023-03-02T05:09:15.669Z,4.03
2023-03-02T05:10:18.344Z,4.57
2023-03-02T05:11:20.905Z,4.26
2023-03-02T05:12:23.480Z,5.96
2023-03-02T05:13:26.082Z,4.63
2023-03-02T05:14:28.666Z,4.05
2023-03-02T05:15:31.223Z,3.50
2023-03-02T05:16:34.522Z,4.96
2023-03-02T05:17:37.346Z,5.82
2023-03-02T05:18:39.942Z,6.15
2023-03-02T05:19:42.541Z,5.83
2023-03-02T05:20:45.330Z,6.29
2023-03-02T05:21:47.992Z,5.16
2023-03-02T05:22:50.541Z,6.50
2023-03-02T05:23:53.001Z,4.35
2023-03-02T05:24:55.559Z,4.51
2023-03-02T05:25:58.119Z,3.99
2023-03-02T05:27:00.679Z,5.77
2023-03-02T05:28:03.432Z,4.52
2023-03-02T05:29:06.403Z,3.63
2023-03-02T05:30:09.671Z,5.72
2023-03-02T05:31:12.324Z,6.51
2023-03-02T05:32:14.901Z,4.34
2023-03-02T05:33:17.442Z,6.15
2023-03-02T05:34:20.111Z,5.96
2023-03-02T05:35:22.798Z,3.77
2023-03-02T05:36:25.640Z,5.31
2023-03-02T05:37:28.518Z,5.39
2023-03-02T05:38:31.080Z,4.60
2023-03-02T05:39:33.627Z,3.06
2023-03-02T05:40:36.293Z,6.94
2023-03-02T05:41:38.871Z,5.95
2023-03-02T05:42:41.437Z,5.57
2023-03-02T05:43:44.030Z,5.60
2023-03-02T05:44:46.578Z,5.05
2023-03-02T05:45:49.145Z,4.92
2023-03-02T05:46:52.099Z,4.77
2023-03-02T05:47:54.764Z,5.12
2023-03-02T05:48:57.414Z,5.93
2023-03-02T05:49:59.865Z,5.29
2023-03-02T05:51:02.469Z,5.72
2023-03-02T05:52:05.074Z,4.01
2023-03-02T05:53:07.693Z,4.37
2023-03-02T05:54:10.253Z,4.99
2023-03-02T05:55:12.880Z,5.64
2023-03-02T05:56:16.066Z,5.21
2023-03-02T05:57:18.640Z,4.65
2023-03-02T05:58:21.189Z,3.99
2023-03-02T05:59:23.754Z,3.19
2023-03-02T06:00:26.723Z,3.01
2023-03-02T06:01:29.274Z,4.20
2023-03-02T06:02:31.836Z,3.71
2023-03-02T06:03:34.446Z,5.83
2023-03-02T06:04:37.026Z,4.49
2023-03-02T06:05:39.580Z,5.45
2023-03-02T06:06:42.406Z,4.53
2023-03-02T06:07:44.968Z,4.29
2023-03-02T06:08:47.562Z,3.87
2023-03-02T06:09:50.126Z,4.30
2023-03-02T06:10:52.812Z,3.75
2023-03-02T06:11:55.400Z,3.31
2023-03-02T06:12:57.872Z,3.94
2023-03-02T06:14:00.430Z,1.96
2023-03-02T06:15:03.090Z,3.38
2023-03-02T06:16:06.044Z,4.29
2023-03-02T06:17:09.174Z,3.14
2023-03-02T06:18:11.749Z,4.08
2023-03-02T06:19:14.291Z,2.91
2023-03-02T06:20:17.110Z,2.16
2023-03-02T06:21:19.676Z,3.40
2023-03-02T06:22:22.266Z,5.72
2023-03-02T06:23:24.757Z,3.53
2023-03-02T06:24:27.337Z,2.78
2023-03-02T06:25:29.809Z,2.56
2023-03-02T06:26:32.830Z,3.00
2023-03-02T06:27:36.128Z,3.02
2023-03-02T06:28:51.611Z,3.82
2023-03-02T06:29:43.069Z,3.18
2023-03-02T06:30:45.940Z,3.21
2023-03-02T06:31:48.632Z,3.74
2023-03-02T06:32:51.481Z,2.87
2023-03-02T06:33:54.204Z,2.68
2023-03-02T06:34:56.755Z,2.77
2023-03-02T06:35:59.370Z,2.44
2023-03-02T06:37:01.936Z,2.25
2023-03-02T06:38:04.723Z,3.99
2023-03-02T06:39:07.313Z,2.77
2023-03-02T06:40:10.313Z,2.19
2023-03-02T06:41:12.838Z,2.77
2023-03-02T06:42:15.668Z,3.89
2023-03-02T06:43:18.232Z,3.06
2023-03-02T06:44:20.787Z,3.23
2023-03-02T06:45:23.558Z,3.56
2023-03-02T06:46:26.458Z,3.33
2023-03-02T06:47:29.342Z,3.05
2023-03-02T06:48:31.899Z,3.07
2023-03-02T06:49:34.509Z,2.79
2023-03-02T06:50:37.289Z,2.89
2023-03-02T06:51:40.025Z,3.13
2023-03-02T06:52:42.582Z,2.15
2023-03-02T06:53:45.175Z,3.01
2023-03-02T06:54:47.742Z,3.14
2023-03-02T06:55:50.344Z,2.93
2023-03-02T06:56:53.077Z,2.57
2023-03-02T06:57:55.613Z,2.29
2023-03-02T06:58:58.205Z,2.59
2023-03-02T07:00:00.744Z,2.89
2023-03-02T07:01:03.319Z,2.90
2023-03-02T07:02:05.889Z,2.88
2023-03-02T07:03:08.442Z,2.73
2023-03-02T07:04:11.047Z,2.29
2023-03-02T07:05:13.645Z,3.24
2023-03-02T07:06:16.403Z,1.57
2023-03-02T07:07:19.289Z,2.38
2023-03-02T07:08:21.884Z,2.40
2023-03-02T07:09:24.479Z,2.32
2023-03-02T07:10:27.034Z,2.85
2023-03-02T07:11:29.594Z,3.71
2023-03-02T07:12:32.162Z,3.11
2023-03-02T07:13:34.773Z,2.42
2023-03-02T07:14:37.366Z,3.27
2023-03-02T07:15:39.984Z,2.07
2023-03-02T07:16:42.915Z,1.75
2023-03-02T07:17:45.469Z,1.99
2023-03-02T07:18:47.941Z,1.53
2023-03-02T07:19:50.488Z,2.57
2023-03-02T07:20:53.167Z,2.69
2023-03-02T07:21:55.906Z,2.42
2023-03-02T07:22:58.415Z,2.13
2023-03-02T07:24:00.970Z,2.55
2023-03-02T07:25:03.537Z,2.06
2023-03-02T07:26:06.807Z,3.43
2023-03-02T07:27:09.407Z,2.38
2023-03-02T07:28:11.982Z,2.63
2023-03-02T07:29:14.525Z,2.53
2023-03-02T07:30:17.491Z,3.13
2023-03-02T07:31:20.098Z,3.05
2023-03-02T07:32:22.686Z,2.96
2023-03-02T07:33:25.549Z,1.11
2023-03-02T07:34:28.126Z,1.69
2023-03-02T07:35:30.682Z,1.72
2023-03-02T07:36:33.730Z,2.25
2023-03-02T07:37:36.305Z,2.22
2023-03-02T07:38:38.831Z,1.95
2023-03-02T07:39:41.400Z,2.29
2023-03-02T07:40:44.171Z,2.58
2023-03-02T07:41:46.733Z,3.83
2023-03-02T07:42:49.306Z,2.76
2023-03-02T07:43:51.915Z,1.79
2023-03-02T07:44:54.475Z,1.77
2023-03-02T07:45:59.476Z,1.47
2023-03-02T07:47:01.451Z,2.11
2023-03-02T07:48:04.012Z,2.05
2023-03-02T07:49:06.574Z,2.62
2023-03-02T07:50:09.771Z,1.95
2023-03-02T07:51:12.302Z,2.45
2023-03-02T07:52:15.013Z,2.03
2023-03-02T07:53:17.594Z,1.73
2023-03-02T07:54:20.176Z,1.96
2023-03-02T07:55:22.731Z,2.24
2023-03-02T07:56:25.499Z,1.26
2023-03-02T07:57:28.079Z,1.87
2023-03-02T07:58:30.674Z,1.70
2023-03-02T07:59:33.256Z,1.45
2023-03-02T08:00:36.127Z,1.98
2023-03-02T08:01:38.704Z,1.89
2023-03-02T08:02:41.359Z,1.07
2023-03-02T08:03:44.121Z,2.16
2023-03-02T08:04:46.688Z,1.47
2023-03-02T08:05:49.607Z,1.61
2023-03-02T08:06:52.778Z,1.47
2023-03-02T08:07:55.323Z,1.51
2023-03-02T08:08:57.965Z,2.06
2023-03-02T08:10:00.631Z,1.87
2023-03-02T08:11:03.222Z,2.07
2023-03-02T08:12:05.782Z,2.55
2023-03-02T08:13:08.345Z,1.67
2023-03-02T08:14:10.877Z,1.73
2023-03-02T08:15:13.456Z,3.27
2023-03-02T08:16:16.226Z,1.57
2023-03-02T08:17:18.757Z,2.45
2023-03-02T08:18:21.346Z,2.52
2023-03-02T08:19:23.939Z,2.39
2023-03-02T08:20:26.805Z,1.98
2023-03-02T08:21:29.366Z,3.03
2023-03-02T08:22:31.921Z,2.45
2023-03-02T08:23:34.556Z,2.69
2023-03-02T08:24:37.273Z,2.31
2023-03-02T08:25:39.984Z,2.24
2023-03-02T08:26:42.534Z,2.05
2023-03-02T08:27:45.024Z,2.54
2023-03-02T08:28:47.588Z,2.57
2023-03-02T08:29:50.187Z,1.69
2023-03-02T08:30:52.964Z,2.49
2023-03-02T08:31:55.648Z,2.56
2023-03-02T08:32:58.286Z,2.92
2023-03-02T08:34:00.850Z,1.75
2023-03-02T08:35:03.275Z,2.47
2023-03-02T08:36:05.989Z,1.43
2023-03-02T08:37:08.644Z,1.89
2023-03-02T08:38:11.254Z,1.66
2023-03-02T08:39:13.795Z,1.93
2023-03-02T08:40:16.661Z,1.22
2023-03-02T08:41:19.232Z,1.32
2023-03-02T08:42:21.802Z,1.95
2023-03-02T08:43:24.363Z,2.22
2023-03-02T08:44:26.936Z,1.41
2023-03-02T08:45:29.511Z,2.55
2023-03-02T08:46:32.358Z,1.57
2023-03-02T08:47:34.947Z,1.63
2023-03-02T08:48:37.512Z,1.15
2023-03-02T08:49:40.084Z,1.65
2023-03-02T08:50:43.060Z,1.82
2023-03-02T08:51:45.641Z,1.59
2023-03-02T08:52:48.384Z,1.72
2023-03-02T08:53:50.981Z,1.41
2023-03-02T08:54:53.552Z,1.34
2023-03-02T08:55:56.080Z,1.11
2023-03-02T08:56:58.742Z,2.21
2023-03-02T08:58:01.328Z,1.71
2023-03-02T08:59:03.900Z,1.54
2023-03-02T09:00:06.892Z,1.64
2023-03-02T09:01:09.521Z,1.64
2023-03-02T09:02:12.372Z,1.21
2023-03-02T09:03:14.980Z,1.94
2023-03-02T09:04:17.563Z,2.07
2023-03-02T09:05:20.116Z,1.51
2023-03-02T09:06:22.772Z,1.83
2023-03-02T09:07:25.380Z,1.47
2023-03-02T09:08:28.185Z,1.77
2023-03-02T09:09:30.763Z,1.81
2023-03-02T09:10:33.426Z,1.49
2023-03-02T09:11:36.194Z,1.02
2023-03-02T09:12:39.184Z,1.68
2023-03-02T09:13:41.808Z,1.79
2023-03-02T09:14:44.333Z,1.45
2023-03-02T09:15:46.881Z,1.55
2023-03-02T09:16:49.484Z,0.89
2023-03-02T09:17:52.018Z,1.34
2023-03-02T09:18:54.609Z,1.67
2023-03-02T09:19:57.240Z,1.19
2023-03-02T09:21:00.105Z,0.99
2023-03-02T09:22:02.570Z,1.77
2023-03-02T09:23:05.288Z,2.12
2023-03-02T09:24:07.845Z,1.89
2023-03-02T09:25:10.413Z,2.09
2023-03-02T09:26:13.792Z,2.34
2023-03-02T09:27:16.453Z,1.83
2023-03-02T09:28:19.158Z,2.38
2023-03-02T09:29:21.762Z,2.28
2023-03-02T09:30:24.749Z,1.62
2023-03-02T09:31:29.828Z,1.11
2023-03-02T09:32:31.803Z,1.65
2023-03-02T09:33:34.346Z,1.87
2023-03-02T09:34:36.908Z,2.52
2023-03-02T09:35:39.459Z,1.92
2023-03-02T09:36:42.330Z,1.73
2023-03-02T09:37:44.970Z,3.71
2023-03-02T09:38:47.665Z,2.59
2023-03-02T09:39:50.275Z,1.37
2023-03-02T09:40:53.295Z,1.26
2023-03-02T09:41:55.860Z,1.27
2023-03-02T09:42:58.451Z,1.58
2023-03-02T09:44:01.004Z,2.20
2023-03-02T09:45:03.559Z,1.72
2023-03-02T09:46:06.407Z,1.54
2023-03-02T09:47:08.987Z,1.95
2023-03-02T09:48:11.551Z,1.82
2023-03-02T09:49:14.124Z,1.42
2023-03-02T09:50:16.966Z,2.28
2023-03-02T09:51:19.522Z,1.73
2023-03-02T09:52:22.094Z,2.21
2023-03-02T09:53:24.631Z,1.17
2023-03-02T09:54:27.309Z,1.43
2023-03-02T09:55:30.145Z,1.96
2023-03-02T09:56:33.262Z,1.86
2023-03-02T09:57:35.986Z,1.67
2023-03-02T09:58:38.610Z,2.13
2023-03-02T09:59:41.104Z,1.57
2023-03-02T10:00:43.996Z,1.19
2023-03-02T10:01:46.522Z,2.12
2023-03-02T10:02:49.144Z,2.07
2023-03-02T10:03:51.844Z,1.85
2023-03-02T10:04:54.822Z,2.10
2023-03-02T10:05:57.702Z,2.71
2023-03-02T10:07:00.379Z,1.53
2023-03-02T10:08:02.916Z,1.67
2023-03-02T10:09:05.674Z,2.13
2023-03-02T10:10:08.953Z,1.16
2023-03-02T10:11:11.546Z,1.52
2023-03-02T10:12:15.254Z,2.07
2023-03-02T10:13:17.843Z,1.87
2023-03-02T10:14:20.501Z,1.30
2023-03-02T10:15:23.044Z,1.76
2023-03-02T10:16:26.013Z,1.74
2023-03-02T10:17:28.516Z,1.33
2023-03-02T10:18:31.164Z,1.75
2023-03-02T10:19:33.744Z,1.67
2023-03-02T10:20:36.597Z,1.37
2023-03-02T10:21:39.160Z,1.25
2023-03-02T10:22:41.735Z,1.57
2023-03-02T10:23:44.306Z,1.53
2023-03-02T10:24:46.864Z,1.37
2023-03-02T10:25:49.443Z,1.34
2023-03-02T10:26:52.240Z,1.71
2023-03-02T10:27:54.963Z,1.64
2023-03-02T10:28:57.694Z,3.09
2023-03-02T10:30:00.270Z,4.44
2023-03-02T10:31:05.109Z,5.62
2023-03-02T10:32:07.395Z,3.71
2023-03-02T10:33:09.944Z,3.13
2023-03-02T10:34:12.449Z,3.02
2023-03-02T10:35:15.211Z,2.43
2023-03-02T10:36:20.462Z,2.76
2023-03-02T10:37:22.531Z,2.66
2023-03-02T10:38:25.081Z,2.38
2023-03-02T10:39:27.680Z,2.42
2023-03-02T10:40:30.380Z,2.33
2023-03-02T10:41:33.000Z,2.03
2023-03-02T10:42:35.586Z,2.53
2023-03-02T10:43:38.156Z,1.76
2023-03-02T10:44:40.768Z,1.64
2023-03-02T10:45:43.365Z,1.78
2023-03-02T10:46:46.113Z,1.83
2023-03-02T10:47:48.683Z,1.26
2023-03-02T10:48:51.157Z,1.77
2023-03-02T10:49:53.700Z,1.87
2023-03-02T10:50:56.471Z,1.54
2023-03-02T10:51:59.046Z,2.45
2023-03-02T10:53:04.158Z,2.04
2023-03-02T10:54:06.007Z,1.55
2023-03-02T10:55:08.566Z,1.28
2023-03-02T10:56:11.978Z,2.28
2023-03-02T10:57:14.989Z,1.76
2023-03-02T10:58:17.559Z,1.65
2023-03-02T10:59:20.094Z,1.16
2023-03-02T11:00:22.859Z,1.37
2023-03-02T11:01:25.527Z,1.45
2023-03-02T11:02:28.104Z,1.86
2023-03-02T11:03:30.672Z,1.41
2023-03-02T11:04:33.293Z,1.51
2023-03-02T11:05:35.918Z,1.95
2023-03-02T11:06:39.223Z,1.72
2023-03-02T11:07:41.991Z,1.99
2023-03-02T11:08:44.551Z,1.90
2023-03-02T11:09:47.113Z,2.07
2023-03-02T11:10:49.882Z,1.54
2023-03-02T11:11:52.728Z,1.62
2023-03-02T11:12:55.674Z,1.49
2023-03-02T11:13:58.231Z,2.20
2023-03-02T11:15:00.895Z,2.35
2023-03-02T11:16:03.457Z,1.46
2023-03-02T11:17:06.282Z,1.51
2023-03-02T11:18:08.873Z,1.01
2023-03-02T11:19:11.431Z,1.06
2023-03-02T11:20:14.528Z,1.36
2023-03-02T11:21:17.096Z,2.23
2023-03-02T11:22:19.694Z,1.19
2023-03-02T11:23:22.252Z,1.42
2023-03-02T11:24:24.815Z,1.27
2023-03-02T11:25:27.382Z,1.85
2023-03-02T11:26:30.226Z,1.28
2023-03-02T11:27:32.904Z,1.46
2023-03-02T11:28:35.476Z,2.07
2023-03-02T11:29:38.031Z,1.96
2023-03-02T11:30:40.597Z,2.21
2023-03-02T11:31:43.295Z,2.73
2023-03-02T11:32:46.086Z,1.98
2023-03-02T11:33:48.985Z,2.09
2023-03-02T11:34:51.598Z,2.21
2023-03-02T11:35:54.209Z,1.97
2023-03-02T11:36:57.461Z,1.98
2023-03-02T11:38:00.089Z,1.65
2023-03-02T11:39:02.623Z,0.81
2023-03-02T11:40:05.287Z,1.11
2023-03-02T11:41:07.881Z,1.16
2023-03-02T11:42:10.459Z,0.79
2023-03-02T11:43:13.036Z,0.84
2023-03-02T11:44:15.614Z,1.09
2023-03-02T11:45:18.163Z,0.65
2023-03-02T11:46:22.298Z,1.53
2023-03-02T11:47:25.437Z,1.26
2023-03-02T11:48:28.196Z,1.15
2023-03-02T11:49:30.743Z,1.78
2023-03-02T11:50:33.544Z,1.25
2023-03-02T11:51:36.888Z,2.06
2023-03-02T11:52:40.373Z,1.99
2023-03-02T11:53:43.029Z,2.31
2023-03-02T11:54:45.749Z,1.64
2023-03-02T11:55:48.302Z,1.82
2023-03-02T11:56:51.059Z,2.42
2023-03-02T11:57:54.024Z,2.17
2023-03-02T11:58:56.602Z,1.87
2023-03-02T11:59:59.238Z,1.69
2023-03-02T12:01:02.008Z,1.22
2023-03-02T12:02:04.667Z,1.80
2023-03-02T12:03:07.625Z,1.82
2023-03-02T12:04:10.242Z,2.18
2023-03-02T12:05:12.833Z,1.99
2023-03-02T12:06:15.678Z,2.23
2023-03-02T12:07:18.236Z,2.16
2023-03-02T12:08:20.800Z,1.61
2023-03-02T12:09:23.539Z,1.93
2023-03-02T12:10:26.684Z,1.87
2023-03-02T12:11:29.241Z,2.35
2023-03-02T12:12:31.790Z,1.53
2023-03-02T12:13:34.351Z,2.60
2023-03-02T12:14:36.998Z,2.55
2023-03-02T12:15:39.592Z,1.93
2023-03-02T12:16:42.413Z,2.30
2023-03-02T12:17:45.279Z,2.32
2023-03-02T12:18:47.991Z,2.24
2023-03-02T12:19:50.578Z,1.94
2023-03-02T12:20:53.671Z,2.27
2023-03-02T12:21:56.230Z,1.66
2023-03-02T12:22:59.354Z,1.79
2023-03-02T12:24:02.317Z,2.61
2023-03-02T12:25:04.913Z,2.69
2023-03-02T12:26:07.891Z,3.02
2023-03-02T12:27:10.445Z,2.33
2023-03-02T12:28:13.047Z,2.11
2023-03-02T12:29:16.021Z,1.91
2023-03-02T12:30:19.016Z,1.51
2023-03-02T12:31:21.605Z,1.54
2023-03-02T12:32:24.296Z,2.11
2023-03-02T12:33:26.911Z,2.37
2023-03-02T12:34:30.841Z,1.37
2023-03-02T12:35:33.925Z,1.89
2023-03-02T12:36:37.085Z,2.14
2023-03-02T12:37:39.669Z,3.93
2023-03-02T12:38:42.294Z,2.39
2023-03-02T12:39:45.243Z,2.77
2023-03-02T12:40:48.062Z,3.94
2023-03-02T12:41:50.635Z,8.76
2023-03-02T12:42:53.305Z,8.82
2023-03-02T12:43:56.072Z,4.88
2023-03-02T12:44:58.719Z,1.49
2023-03-02T12:46:01.435Z,1.46
2023-03-02T12:47:04.151Z,2.29
2023-03-02T12:48:06.953Z,2.44
2023-03-02T12:49:11.014Z,2.30
2023-03-02T12:50:14.850Z,1.82
2023-03-02T12:51:17.528Z,2.07
2023-03-02T12:52:22.166Z,1.46
2023-03-02T12:53:24.641Z,2.24
2023-03-02T12:54:27.148Z,1.95
2023-03-02T12:55:29.757Z,2.48
2023-03-02T12:56:32.426Z,1.93
2023-03-02T12:57:34.946Z,2.13
2023-03-02T12:58:37.646Z,1.65
2023-03-02T12:59:40.241Z,2.21
2023-03-02T13:00:43.114Z,2.83
2023-03-02T13:01:45.677Z,1.92
2023-03-02T13:02:48.306Z,2.35
2023-03-02T13:03:51.141Z,1.79
2023-03-02T13:04:53.967Z,2.40
2023-03-02T13:05:56.671Z,2.37
2023-03-02T13:06:59.398Z,2.58
2023-03-02T13:08:01.986Z,1.39
2023-03-02T13:09:04.579Z,2.25
2023-03-02T13:10:07.733Z,2.84
2023-03-02T13:11:10.350Z,2.43
2023-03-02T13:12:12.893Z,1.99
2023-03-02T13:13:15.502Z,1.26
2023-03-02T13:14:18.031Z,1.55
2023-03-02T13:15:20.571Z,2.51
2023-03-02T13:16:23.524Z,1.35
2023-03-02T13:17:26.482Z,2.26
2023-03-02T13:18:29.041Z,1.20
2023-03-02T13:19:31.746Z,1.43
2023-03-02T13:20:34.406Z,2.12
2023-03-02T13:21:36.969Z,2.42
2023-03-02T13:22:39.545Z,1.91
2023-03-02T13:23:42.445Z,1.51
2023-03-02T13:24:45.019Z,3.78
2023-03-02T13:25:47.593Z,3.09
2023-03-02T13:26:50.361Z,2.09
2023-03-02T13:27:53.024Z,2.37
2023-03-02T13:28:55.739Z,1.73
2023-03-02T13:29:58.433Z,2.15
2023-03-02T13:31:01.210Z,2.19
2023-03-02T13:32:03.826Z,1.73
2023-03-02T13:33:06.374Z,2.27
2023-03-02T13:34:08.928Z,2.41
2023-03-02T13:35:11.492Z,2.74
2023-03-02T13:36:14.762Z,3.39
2023-03-02T13:37:17.337Z,3.13
2023-03-02T13:38:19.907Z,3.41
2023-03-02T13:39:22.485Z,3.86
2023-03-02T13:40:25.136Z,2.77
2023-03-02T13:41:27.764Z,3.09
2023-03-02T13:42:30.255Z,2.73
2023-03-02T13:43:32.858Z,2.15
2023-03-02T13:44:35.421Z,2.88
2023-03-02T13:45:37.990Z,3.23
2023-03-02T13:46:42.318Z,3.68
2023-03-02T13:47:45.062Z,3.42
2023-03-02T13:48:48.615Z,6.37
2023-03-02T13:49:51.346Z,4.86
2023-03-02T13:50:54.289Z,4.93
2023-03-02T13:51:56.856Z,3.19
2023-03-02T13:52:59.421Z,5.51
2023-03-02T13:54:02.033Z,6.37